Bay Bridge — 3FCS5 — position and weather

sailwx.info

Track history (hours):
 
Tides and Currents Weather Stations Pressure Air Temp Water Temp Dewpoint Dewpoint Depression Visibility Wind Speed Wind Dir Waves Ship Positions

Bay Bridge

Last reported at 2016-Jun-23 05:29 UTC. Time now 2016-Jun-25 08:52 UTC.
Position N 38°18' W 128°13'.

Length 267 m; draft 11.4 m.

Type: Ship (hazmat cat A). MMSI: 354120000.

Date/timePositionNaut miles runAvg speedWind from/ knotsBaromVisibWave heightAir tempDewpointWater temp
2016-Jun-23 05:29N 38°18' W 128°13'11811.3
2016-Jun-22 19:08N 38°09' W 125°44'610.6
2016-Jun-22 18:33N 38°09' W 125°36'1110.4
2016-Jun-22 17:27N 38°09' W 125°22'910.5
2016-Jun-22 16:33N 38°09' W 125°10'1110.6
2016-Jun-22 15:33N 38°09' W 124°56'1110.8
2016-Jun-22 14:33N 38°09' W 124°43'1010.5
2016-Jun-22 13:33N 38°10' W 124°29'1010.1
2016-Jun-22 12:33N 38°09' W 124°17'10 9.7
2016-Jun-22 11:33N 38°09' W 124°04'10 9.8
2016-Jun-22 10:33N 38°09' W 123°52'10 9.8
2016-Jun-22 09:33N 38°09' W 123°39'10 9.7
2016-Jun-22 08:33N 38°09' W 123°27'9 8.8
2016-Jun-22 07:33N 38°06' W 123°16'1010.0
2016-Jun-22 06:33N 37°58' W 123°08'1110.5
2016-Jun-22 05:33N 37°53' W 122°56'1110.7
2016-Jun-22 04:33N 37°48' W 122°44'1311.4
2016-Jun-22 03:25N 37°49' W 122°28'7 8.1
2016-Jun-22 02:33N 37°49' W 122°20'0 0.0
2016-Jun-22 01:33N 37°49' W 122°20'0 0.0
2016-Jun-22 00:33N 37°49' W 122°20'0 0.0
2016-Jun-21 23:33N 37°49' W 122°20'0 0.0
2016-Jun-21 22:33N 37°49' W 122°20'0 0.0
2016-Jun-21 21:33N 37°49' W 122°20'0 0.0
2016-Jun-21 20:33N 37°49' W 122°20'0 0.0
2016-Jun-21 19:33N 37°49' W 122°20'0 0.0
2016-Jun-21 18:33N 37°49' W 122°20'0 0.0
2016-Jun-21 17:33N 37°49' W 122°20'0 0.0
2016-Jun-21 16:33N 37°49' W 122°20'0 0.0
2016-Jun-21 15:33N 37°49' W 122°20'0 0.0
2016-Jun-21 14:33N 37°49' W 122°20'0 0.1
2016-Jun-21 13:33N 37°49' W 122°20'9 9.0
2016-Jun-21 12:33N 37°48' W 122°31'10 9.7
2016-Jun-21 11:33N 37°42' W 122°41'1010.1
2016-Jun-21 10:33N 37°32' W 122°40'1010.4
2016-Jun-21 09:33N 37°21' W 122°40'1413.8
2016-Jun-21 08:33N 37°08' W 122°39'1616.0
2016-Jun-21 07:33N 36°52' W 122°33'4 3.8
2016-Jun-21 06:28N 36°48' W 122°32'3 1.4
2016-Jun-21 04:28N 36°50' W 122°34'1 1.4
2016-Jun-21 03:31N 36°52' W 122°35'1 1.3
2016-Jun-21 02:31N 36°52' W 122°36'1 1.3
2016-Jun-21 01:31N 36°54' W 122°37'2 1.4
2016-Jun-21 00:28N 36°55' W 122°37'2 1.8
2016-Jun-20 23:31N 36°57' W 122°37'2 1.9
2016-Jun-20 22:31N 36°59' W 122°38'2 2.1
2016-Jun-20 21:31N 37°01' W 122°38'2 2.4
2016-Jun-20 20:33N 37°03' W 122°38'5 5.2
2016-Jun-20 19:33N 36°58' W 122°35'10 9.9
2016-Jun-20 18:34N 36°49' W 122°31'1010.0
2016-Jun-20 17:33N 36°40' W 122°26'1010.2
2016-Jun-20 16:34N 36°31' W 122°21'1010.2
2016-Jun-20 15:33N 36°21' W 122°16'1010.2
2016-Jun-20 14:34N 36°12' W 122°10'10 9.9
2016-Jun-20 13:33N 36°04' W 122°04'9 9.4
2016-Jun-20 12:33N 35°55' W 121°59'10 9.5
2016-Jun-20 11:34N 35°47' W 121°54'10 9.8
2016-Jun-20 10:34N 35°38' W 121°47'10 9.7
2016-Jun-20 09:34N 35°31' W 121°40'1110.9
2016-Jun-20 08:34N 35°21' W 121°33'1110.9
2016-Jun-20 07:34N 35°12' W 121°26'10 9.9
2016-Jun-20 06:34N 35°03' W 121°20'1010.3
2016-Jun-20 05:34N 34°54' W 121°14'1010.5
2016-Jun-20 04:33N 34°45' W 121°07'1110.7
2016-Jun-20 03:33N 34°36' W 121°01'1010.2
2016-Jun-20 02:33N 34°28' W 120°54'1110.7
2016-Jun-20 01:34N 34°24' W 120°42'1010.2
2016-Jun-20 00:34N 34°21' W 120°30'2110.6
2016-Jun-19 22:33N 34°16' W 120°05'2210.1
2016-Jun-19 20:23N 34°10' W 119°40'1010.5
2016-Jun-19 19:24N 34°07' W 119°28'910.7
2016-Jun-19 18:33N 34°05' W 119°17'1110.9
2016-Jun-19 17:34N 33°60' W 119°06'1111.1
2016-Jun-19 16:33N 33°54' W 118°54'1111.5
2016-Jun-19 15:34N 33°49' W 118°42'1211.5
2016-Jun-19 14:34N 33°43' W 118°30'1110.7
2016-Jun-19 13:33N 33°38' W 118°18'8 7.5
2016-Jun-19 12:34N 33°43' W 118°11'2 1.7
2016-Jun-19 11:33N 33°45' W 118°12'0 0.0
2016-Jun-19 10:33N 33°45' W 118°12'0 0.0
2016-Jun-19 09:33N 33°45' W 118°12'0 0.0
2016-Jun-19 08:30N 33°45' W 118°12'0 0.0
2016-Jun-19 07:33N 33°45' W 118°12'0 0.0
2016-Jun-19 06:32N 33°45' W 118°12'0 0.0
2016-Jun-19 05:33N 33°45' W 118°12'0 0.0
2016-Jun-19 04:33N 33°45' W 118°12'0 0.1
2016-Jun-19 03:32N 33°45' W 118°12'0 0.0
2016-Jun-19 02:33N 33°45' W 118°12'0 0.0
2016-Jun-19 01:33N 33°45' W 118°12'0 0.0
2016-Jun-19 00:32N 33°45' W 118°12'0 0.0
2016-Jun-18 23:33N 33°45' W 118°12'0 0.0
2016-Jun-18 22:33N 33°45' W 118°12'0 0.0
2016-Jun-18 21:33N 33°45' W 118°12'0 0.0
2016-Jun-18 20:32N 33°45' W 118°12'0 0.0
2016-Jun-18 19:33N 33°45' W 118°12'0 0.0
2016-Jun-18 18:33N 33°45' W 118°12'0 0.0
2016-Jun-18 17:32N 33°45' W 118°12'0 0.0
2016-Jun-18 16:33N 33°45' W 118°12'0 0.0
2016-Jun-18 15:33N 33°45' W 118°12'0 0.0
2016-Jun-18 14:32N 33°45' W 118°12'0 0.0
2016-Jun-18 13:32N 33°45' W 118°12'0 0.1
2016-Jun-18 12:33N 33°45' W 118°12'0 0.0
2016-Jun-18 11:32N 33°45' W 118°12'0 0.1
2016-Jun-18 10:32N 33°45' W 118°12'0 0.0
2016-Jun-18 09:32N 33°45' W 118°12'0 0.0
2016-Jun-18 08:32N 33°45' W 118°12'0 0.0
2016-Jun-18 07:33N 33°45' W 118°12'0 0.1
2016-Jun-18 06:33N 33°45' W 118°12'0 0.0
2016-Jun-18 05:32N 33°45' W 118°12'0 0.0
2016-Jun-18 04:29N 33°45' W 118°12'0 0.1
2016-Jun-18 03:32N 33°45' W 118°12'0 0.0
2016-Jun-18 02:32N 33°45' W 118°12'0 0.0
2016-Jun-18 01:26N 33°45' W 118°12'0 0.1
2016-Jun-18 00:32N 33°45' W 118°12'0 0.0
2016-Jun-17 23:32N 33°45' W 118°12'0 0.1
2016-Jun-17 22:32N 33°45' W 118°12'0 0.0
2016-Jun-17 21:32N 33°45' W 118°12'0 0.0
2016-Jun-17 20:32N 33°45' W 118°12'0 0.0
2016-Jun-17 19:32N 33°45' W 118°12'0 0.1
2016-Jun-17 18:32N 33°45' W 118°12'0 0.0
2016-Jun-17 17:32N 33°45' W 118°12'0 0.0
2016-Jun-17 16:32N 33°45' W 118°12'0 0.0
2016-Jun-17 15:32N 33°45' W 118°12'0 0.0
2016-Jun-17 14:32N 33°45' W 118°12'0 0.0
2016-Jun-17 13:32N 33°45' W 118°12'0 0.1
2016-Jun-17 12:32N 33°45' W 118°12'0 0.1
2016-Jun-17 11:32N 33°45' W 118°12'0 0.0
2016-Jun-17 10:32N 33°45' W 118°12'0 0.1
2016-Jun-17 09:32N 33°45' W 118°12'0 0.0
2016-Jun-17 08:32N 33°45' W 118°12'0 0.1
2016-Jun-17 07:32N 33°45' W 118°12'0 0.1
2016-Jun-17 06:32N 33°45' W 118°12'0 0.0
2016-Jun-17 05:29N 33°45' W 118°12'0 0.1
2016-Jun-17 04:32N 33°45' W 118°12'0 0.1
2016-Jun-17 03:32N 33°45' W 118°12'0 0.1
2016-Jun-17 02:32N 33°45' W 118°12'0 0.0
2016-Jun-17 01:32N 33°45' W 118°12'0 0.0
2016-Jun-17 00:32N 33°45' W 118°12'0 0.1
2016-Jun-16 23:32N 33°45' W 118°12'0 0.1
2016-Jun-16 22:33N 33°45' W 118°12'7 6.6
2016-Jun-16 21:33N 33°38' W 118°11'1110.7
2016-Jun-16 20:33N 33°37' W 118°24'1211.8
2016-Jun-16 19:33N 33°43' W 118°36'1611.7
2016-Jun-16 18:09N 33°51' W 118°53'711.7
2016-Jun-16 17:33N 33°55' W 119°01'1212.0
2016-Jun-16 16:33N 34°01' W 119°13'1211.9
2016-Jun-16 15:32N 34°05' W 119°27'  
Track history (hours):
 
Tides and Currents Weather Stations Pressure Air Temp Water Temp Dewpoint Dewpoint Depression Visibility Wind Speed Wind Dir Waves Ship Positions

Bay Bridge

Last reported at 2016-Jun-23 05:29 UTC. Time now 2016-Jun-25 08:52 UTC.
Position N 38°18' W 128°13'.

Length 267 m; draft 11.4 m.

Type: Ship (hazmat cat A). MMSI: 354120000.

Date/timePositionNaut miles runAvg speedWind from/ knotsBaromVisibWave heightAir tempDewpointWater temp
2016-Jun-23 05:29N 38°18' W 128°13'11811.3
2016-Jun-22 19:08N 38°09' W 125°44'610.6
2016-Jun-22 18:33N 38°09' W 125°36'1110.4
2016-Jun-22 17:27N 38°09' W 125°22'910.5
2016-Jun-22 16:33N 38°09' W 125°10'1110.6
2016-Jun-22 15:33N 38°09' W 124°56'1110.8
2016-Jun-22 14:33N 38°09' W 124°43'1010.5
2016-Jun-22 13:33N 38°10' W 124°29'1010.1
2016-Jun-22 12:33N 38°09' W 124°17'10 9.7
2016-Jun-22 11:33N 38°09' W 124°04'10 9.8
2016-Jun-22 10:33N 38°09' W 123°52'10 9.8
2016-Jun-22 09:33N 38°09' W 123°39'10 9.7
2016-Jun-22 08:33N 38°09' W 123°27'9 8.8
2016-Jun-22 07:33N 38°06' W 123°16'1010.0
2016-Jun-22 06:33N 37°58' W 123°08'1110.5
2016-Jun-22 05:33N 37°53' W 122°56'1110.7
2016-Jun-22 04:33N 37°48' W 122°44'1311.4
2016-Jun-22 03:25N 37°49' W 122°28'7 8.1
2016-Jun-22 02:33N 37°49' W 122°20'0 0.0
2016-Jun-22 01:33N 37°49' W 122°20'0 0.0
2016-Jun-22 00:33N 37°49' W 122°20'0 0.0
2016-Jun-21 23:33N 37°49' W 122°20'0 0.0
2016-Jun-21 22:33N 37°49' W 122°20'0 0.0
2016-Jun-21 21:33N 37°49' W 122°20'0 0.0
2016-Jun-21 20:33N 37°49' W 122°20'0 0.0
2016-Jun-21 19:33N 37°49' W 122°20'0 0.0
2016-Jun-21 18:33N 37°49' W 122°20'0 0.0
2016-Jun-21 17:33N 37°49' W 122°20'0 0.0
2016-Jun-21 16:33N 37°49' W 122°20'0 0.0
2016-Jun-21 15:33N 37°49' W 122°20'0 0.0
2016-Jun-21 14:33N 37°49' W 122°20'0 0.1
2016-Jun-21 13:33N 37°49' W 122°20'9 9.0
2016-Jun-21 12:33N 37°48' W 122°31'10 9.7
2016-Jun-21 11:33N 37°42' W 122°41'1010.1
2016-Jun-21 10:33N 37°32' W 122°40'1010.4
2016-Jun-21 09:33N 37°21' W 122°40'1413.8
2016-Jun-21 08:33N 37°08' W 122°39'1616.0
2016-Jun-21 07:33N 36°52' W 122°33'4 3.8
2016-Jun-21 06:28N 36°48' W 122°32'3 1.4
2016-Jun-21 04:28N 36°50' W 122°34'1 1.4
2016-Jun-21 03:31N 36°52' W 122°35'1 1.3
2016-Jun-21 02:31N 36°52' W 122°36'1 1.3
2016-Jun-21 01:31N 36°54' W 122°37'2 1.4
2016-Jun-21 00:28N 36°55' W 122°37'2 1.8
2016-Jun-20 23:31N 36°57' W 122°37'2 1.9
2016-Jun-20 22:31N 36°59' W 122°38'2 2.1
2016-Jun-20 21:31N 37°01' W 122°38'2 2.4
2016-Jun-20 20:33N 37°03' W 122°38'5 5.2
2016-Jun-20 19:33N 36°58' W 122°35'10 9.9
2016-Jun-20 18:34N 36°49' W 122°31'1010.0
2016-Jun-20 17:33N 36°40' W 122°26'1010.2
2016-Jun-20 16:34N 36°31' W 122°21'1010.2
2016-Jun-20 15:33N 36°21' W 122°16'1010.2
2016-Jun-20 14:34N 36°12' W 122°10'10 9.9
2016-Jun-20 13:33N 36°04' W 122°04'9 9.4
2016-Jun-20 12:33N 35°55' W 121°59'10 9.5
2016-Jun-20 11:34N 35°47' W 121°54'10 9.8
2016-Jun-20 10:34N 35°38' W 121°47'10 9.7
2016-Jun-20 09:34N 35°31' W 121°40'1110.9
2016-Jun-20 08:34N 35°21' W 121°33'1110.9
2016-Jun-20 07:34N 35°12' W 121°26'10 9.9
2016-Jun-20 06:34N 35°03' W 121°20'1010.3
2016-Jun-20 05:34N 34°54' W 121°14'1010.5
2016-Jun-20 04:33N 34°45' W 121°07'1110.7
2016-Jun-20 03:33N 34°36' W 121°01'1010.2
2016-Jun-20 02:33N 34°28' W 120°54'1110.7
2016-Jun-20 01:34N 34°24' W 120°42'1010.2
2016-Jun-20 00:34N 34°21' W 120°30'2110.6
2016-Jun-19 22:33N 34°16' W 120°05'2210.1
2016-Jun-19 20:23N 34°10' W 119°40'1010.5
2016-Jun-19 19:24N 34°07' W 119°28'910.7
2016-Jun-19 18:33N 34°05' W 119°17'1110.9
2016-Jun-19 17:34N 33°60' W 119°06'1111.1
2016-Jun-19 16:33N 33°54' W 118°54'1111.5
2016-Jun-19 15:34N 33°49' W 118°42'1211.5
2016-Jun-19 14:34N 33°43' W 118°30'1110.7
2016-Jun-19 13:33N 33°38' W 118°18'8 7.5
2016-Jun-19 12:34N 33°43' W 118°11'2 1.7
2016-Jun-19 11:33N 33°45' W 118°12'0 0.0
2016-Jun-19 10:33N 33°45' W 118°12'0 0.0
2016-Jun-19 09:33N 33°45' W 118°12'0 0.0
2016-Jun-19 08:30N 33°45' W 118°12'0 0.0
2016-Jun-19 07:33N 33°45' W 118°12'0 0.0
2016-Jun-19 06:32N 33°45' W 118°12'0 0.0
2016-Jun-19 05:33N 33°45' W 118°12'0 0.0
2016-Jun-19 04:33N 33°45' W 118°12'0 0.1
2016-Jun-19 03:32N 33°45' W 118°12'0 0.0
2016-Jun-19 02:33N 33°45' W 118°12'0 0.0
2016-Jun-19 01:33N 33°45' W 118°12'0 0.0
2016-Jun-19 00:32N 33°45' W 118°12'0 0.0
2016-Jun-18 23:33N 33°45' W 118°12'0 0.0
2016-Jun-18 22:33N 33°45' W 118°12'0 0.0
2016-Jun-18 21:33N 33°45' W 118°12'0 0.0
2016-Jun-18 20:32N 33°45' W 118°12'0 0.0
2016-Jun-18 19:33N 33°45' W 118°12'0 0.0
2016-Jun-18 18:33N 33°45' W 118°12'0 0.0
2016-Jun-18 17:32N 33°45' W 118°12'0 0.0
2016-Jun-18 16:33N 33°45' W 118°12'0 0.0
2016-Jun-18 15:33N 33°45' W 118°12'0 0.0
2016-Jun-18 14:32N 33°45' W 118°12'0 0.0
2016-Jun-18 13:32N 33°45' W 118°12'0 0.1
2016-Jun-18 12:33N 33°45' W 118°12'0 0.0
2016-Jun-18 11:32N 33°45' W 118°12'0 0.1
2016-Jun-18 10:32N 33°45' W 118°12'0 0.0
2016-Jun-18 09:32N 33°45' W 118°12'0 0.0
2016-Jun-18 08:32N 33°45' W 118°12'0 0.0
2016-Jun-18 07:33N 33°45' W 118°12'0 0.1
2016-Jun-18 06:33N 33°45' W 118°12'0 0.0
2016-Jun-18 05:32N 33°45' W 118°12'0 0.0
2016-Jun-18 04:29N 33°45' W 118°12'0 0.1
2016-Jun-18 03:32N 33°45' W 118°12'0 0.0
2016-Jun-18 02:32N 33°45' W 118°12'0 0.0
2016-Jun-18 01:26N 33°45' W 118°12'0 0.1
2016-Jun-18 00:32N 33°45' W 118°12'0 0.0
2016-Jun-17 23:32N 33°45' W 118°12'0 0.1
2016-Jun-17 22:32N 33°45' W 118°12'0 0.0
2016-Jun-17 21:32N 33°45' W 118°12'0 0.0
2016-Jun-17 20:32N 33°45' W 118°12'0 0.0
2016-Jun-17 19:32N 33°45' W 118°12'0 0.1
2016-Jun-17 18:32N 33°45' W 118°12'0 0.0
2016-Jun-17 17:32N 33°45' W 118°12'0 0.0
2016-Jun-17 16:32N 33°45' W 118°12'0 0.0
2016-Jun-17 15:32N 33°45' W 118°12'0 0.0
2016-Jun-17 14:32N 33°45' W 118°12'0 0.0
2016-Jun-17 13:32N 33°45' W 118°12'0 0.1
2016-Jun-17 12:32N 33°45' W 118°12'0 0.1
2016-Jun-17 11:32N 33°45' W 118°12'0 0.0
2016-Jun-17 10:32N 33°45' W 118°12'0 0.1
2016-Jun-17 09:32N 33°45' W 118°12'0 0.0
2016-Jun-17 08:32N 33°45' W 118°12'0 0.1
2016-Jun-17 07:32N 33°45' W 118°12'0 0.1
2016-Jun-17 06:32N 33°45' W 118°12'0 0.0
2016-Jun-17 05:29N 33°45' W 118°12'0 0.1
2016-Jun-17 04:32N 33°45' W 118°12'0 0.1
2016-Jun-17 03:32N 33°45' W 118°12'0 0.1
2016-Jun-17 02:32N 33°45' W 118°12'0 0.0
2016-Jun-17 01:32N 33°45' W 118°12'0 0.0
2016-Jun-17 00:32N 33°45' W 118°12'0 0.1
2016-Jun-16 23:32N 33°45' W 118°12'0 0.1
2016-Jun-16 22:33N 33°45' W 118°12'7 6.6
2016-Jun-16 21:33N 33°38' W 118°11'1110.7
2016-Jun-16 20:33N 33°37' W 118°24'1211.8
2016-Jun-16 19:33N 33°43' W 118°36'1611.7
2016-Jun-16 18:09N 33°51' W 118°53'711.7
2016-Jun-16 17:33N 33°55' W 119°01'1212.0
2016-Jun-16 16:33N 34°01' W 119°13'1211.9
2016-Jun-16 15:32N 34°05' W 119°27'  

Dump ship's entire track history